createdAt,value
2023-03-22T00:01:17.305Z,12.05
2023-03-22T00:03:45.007Z,12.00
2023-03-22T00:06:12.608Z,12.26
2023-03-22T00:08:40.324Z,12.39
2023-03-22T00:11:07.963Z,12.35
2023-03-22T00:13:35.799Z,12.52
2023-03-22T00:16:04.453Z,12.41
2023-03-22T00:18:32.048Z,12.49
2023-03-22T00:20:59.456Z,12.19
2023-03-22T00:23:27.570Z,12.23
2023-03-22T00:25:55.260Z,12.12
2023-03-22T00:28:22.645Z,11.76
2023-03-22T00:30:58.232Z,11.85
2023-03-22T00:33:28.470Z,11.93
2023-03-22T00:36:06.765Z,11.98
2023-03-22T00:38:44.936Z,12.09
2023-03-22T00:41:14.697Z,12.01
2023-03-22T00:43:45.652Z,11.86
2023-03-22T00:46:13.322Z,11.86
2023-03-22T00:48:40.778Z,11.65
2023-03-22T00:51:08.685Z,11.19
2023-03-22T00:53:36.984Z,11.70
2023-03-22T00:56:05.577Z,11.61
2023-03-22T00:58:35.440Z,11.86
2023-03-22T01:01:02.863Z,11.38
2023-03-22T01:03:30.319Z,11.50
2023-03-22T01:05:58.043Z,11.08
2023-03-22T01:08:25.462Z,11.16
2023-03-22T01:10:53.667Z,11.47
2023-03-22T01:13:21.315Z,11.24
2023-03-22T01:15:50.897Z,11.34
2023-03-22T01:18:18.696Z,11.49
2023-03-22T01:20:46.336Z,11.26
2023-03-22T01:23:13.789Z,11.46
2023-03-22T01:25:41.223Z,11.45
2023-03-22T01:28:08.986Z,11.52
2023-03-22T01:30:36.969Z,11.51
2023-03-22T01:33:05.683Z,11.21
2023-03-22T01:35:34.387Z,11.57
2023-03-22T01:38:01.812Z,11.67
2023-03-22T01:40:29.260Z,11.23
2023-03-22T01:42:57.370Z,10.99
2023-03-22T01:45:36.415Z,11.28
2023-03-22T01:48:34.207Z,11.67
2023-03-22T01:51:07.806Z,11.41
2023-03-22T01:53:39.351Z,11.18
2023-03-22T01:56:07.737Z,11.49
2023-03-22T01:58:36.619Z,11.62
2023-03-22T02:01:05.451Z,11.29
2023-03-22T02:04:07.213Z,11.42
2023-03-22T02:06:38.106Z,11.37
2023-03-22T02:09:08.188Z,11.52
2023-03-22T02:11:42.855Z,11.58
2023-03-22T02:14:17.215Z,11.29
2023-03-22T02:17:04.491Z,11.17
2023-03-22T02:19:52.020Z,10.42
2023-03-22T02:22:53.282Z,10.69
2023-03-22T02:26:00.017Z,10.99
2023-03-22T02:29:08.184Z,11.11
2023-03-22T02:31:54.189Z,10.77
2023-03-22T02:34:46.200Z,10.16
2023-03-22T02:37:33.807Z,10.83
2023-03-22T02:40:12.876Z,10.47
2023-03-22T02:42:46.290Z,10.70
2023-03-22T02:45:15.496Z,10.62
2023-03-22T02:47:50.261Z,9.95
2023-03-22T02:50:28.720Z,10.21
2023-03-22T02:53:24.688Z,10.69
2023-03-22T02:56:02.754Z,10.31
2023-03-22T02:58:38.134Z,10.58
2023-03-22T03:01:07.643Z,10.34
2023-03-22T03:03:37.659Z,10.14
2023-03-22T03:06:13.612Z,10.12
2023-03-22T03:08:41.346Z,10.55
2023-03-22T03:11:09.366Z,10.48
2023-03-22T03:13:37.123Z,10.41
2023-03-22T03:16:07.848Z,10.91
2023-03-22T03:18:48.432Z,10.81
2023-03-22T03:22:14.602Z,10.79
2023-03-22T03:25:22.363Z,10.92
2023-03-22T03:27:52.268Z,10.93
2023-03-22T03:30:21.878Z,11.17
2023-03-22T03:32:54.650Z,10.96
2023-03-22T03:35:37.661Z,11.11
2023-03-22T03:38:18.680Z,11.19
2023-03-22T03:40:51.484Z,11.33
2023-03-22T03:43:18.882Z,11.38
2023-03-22T03:45:46.781Z,11.25
2023-03-22T03:48:19.277Z,10.97
2023-03-22T03:50:47.733Z,10.66
2023-03-22T03:53:15.066Z,10.50
2023-03-22T03:55:42.460Z,10.85
2023-03-22T03:58:10.222Z,10.73
2023-03-22T04:00:37.881Z,10.97
2023-03-22T04:03:07.748Z,11.20
2023-03-22T04:05:36.257Z,11.10
2023-03-22T04:08:03.694Z,11.29
2023-03-22T04:10:32.977Z,11.12
2023-03-22T04:13:00.413Z,11.12
2023-03-22T04:15:27.970Z,11.26
2023-03-22T04:17:56.109Z,10.63
2023-03-22T04:20:26.169Z,10.85
2023-03-22T04:22:53.577Z,10.87
2023-03-22T04:25:22.862Z,10.91
2023-03-22T04:27:51.636Z,11.05
2023-03-22T04:30:20.158Z,10.68
2023-03-22T04:32:53.134Z,10.67
2023-03-22T04:35:21.362Z,10.42
2023-03-22T04:37:49.386Z,10.78
2023-03-22T04:40:20.729Z,10.78
2023-03-22T04:42:48.260Z,11.04
2023-03-22T04:45:16.287Z,10.74
2023-03-22T04:47:44.338Z,10.80
2023-03-22T04:50:11.776Z,10.67
2023-03-22T04:52:40.584Z,10.63
2023-03-22T04:55:08.336Z,10.76
2023-03-22T04:57:36.208Z,10.33
2023-03-22T05:00:08.360Z,10.48
2023-03-22T05:02:41.170Z,11.09
2023-03-22T05:05:09.833Z,10.75
2023-03-22T05:07:39.230Z,10.78
2023-03-22T05:10:07.279Z,10.69
2023-03-22T05:12:35.120Z,10.48
2023-03-22T05:15:04.310Z,10.64
2023-03-22T05:17:33.132Z,10.71
2023-03-22T05:20:08.279Z,11.02
2023-03-22T05:22:40.619Z,10.92
2023-03-22T05:25:10.263Z,10.64
2023-03-22T05:27:39.002Z,10.69
2023-03-22T05:30:07.501Z,11.33
2023-03-22T05:32:37.598Z,11.44
2023-03-22T05:35:05.403Z,11.28
2023-03-22T05:37:33.306Z,11.23
2023-03-22T05:40:01.330Z,11.63
2023-03-22T05:42:30.684Z,11.53
2023-03-22T05:44:58.132Z,12.03
2023-03-22T05:47:25.901Z,12.02
2023-03-22T05:49:53.738Z,12.06
2023-03-22T05:52:23.126Z,12.55
2023-03-22T05:54:51.646Z,12.76
2023-03-22T05:57:19.064Z,13.04
2023-03-22T05:59:46.540Z,13.15
2023-03-22T06:02:17.156Z,12.93
2023-03-22T06:04:44.830Z,13.01
2023-03-22T06:07:12.887Z,13.14
2023-03-22T06:09:40.589Z,12.91
2023-03-22T06:12:08.836Z,12.86
2023-03-22T06:14:36.547Z,13.24
2023-03-22T06:17:05.218Z,13.48
2023-03-22T06:19:32.952Z,13.49
2023-03-22T06:22:01.808Z,13.55
2023-03-22T06:24:29.423Z,13.79
2023-03-22T06:26:57.178Z,13.99
2023-03-22T06:29:24.792Z,14.41
2023-03-22T06:31:52.724Z,14.17
2023-03-22T06:34:20.602Z,14.39
2023-03-22T06:36:48.543Z,14.30
2023-03-22T06:39:16.174Z,14.55
2023-03-22T06:41:44.018Z,14.56
2023-03-22T06:44:11.382Z,14.69
2023-03-22T06:46:39.535Z,15.03
2023-03-22T06:49:08.030Z,15.21
2023-03-22T06:51:35.621Z,15.28
2023-03-22T06:54:03.572Z,15.24
2023-03-22T06:56:31.385Z,15.42
2023-03-22T06:58:58.820Z,15.96
2023-03-22T07:01:26.574Z,15.96
2023-03-22T07:03:54.812Z,16.22
2023-03-22T07:06:22.334Z,16.03
2023-03-22T07:08:51.945Z,15.63
2023-03-22T07:11:19.897Z,16.03
2023-03-22T07:13:47.736Z,15.69
2023-03-22T07:16:16.349Z,15.84
2023-03-22T07:18:45.544Z,16.11
2023-03-22T07:21:12.899Z,16.16
2023-03-22T07:23:40.504Z,16.23
2023-03-22T07:26:09.135Z,15.64
2023-03-22T07:28:37.385Z,16.25
2023-03-22T07:31:07.185Z,16.62
2023-03-22T07:33:36.293Z,17.04
2023-03-22T07:36:04.725Z,17.06
2023-03-22T07:38:32.299Z,16.99
2023-03-22T07:41:00.269Z,17.29
2023-03-22T07:43:28.366Z,17.39
2023-03-22T07:45:56.963Z,17.55
2023-03-22T07:48:28.925Z,17.69
2023-03-22T07:50:56.707Z,17.83
2023-03-22T07:53:24.548Z,17.79
2023-03-22T07:55:52.544Z,17.77
2023-03-22T07:58:20.513Z,17.93
2023-03-22T08:00:49.754Z,17.24
2023-03-22T08:03:20.084Z,17.67
2023-03-22T08:05:48.795Z,17.15
2023-03-22T08:08:16.533Z,17.38
2023-03-22T08:10:49.277Z,17.60
2023-03-22T08:13:16.931Z,17.59
2023-03-22T08:15:44.428Z,16.96
2023-03-22T08:18:13.142Z,17.66
2023-03-22T08:20:41.347Z,17.68
2023-03-22T08:23:14.450Z,17.99
2023-03-22T08:25:43.593Z,17.73
2023-03-22T08:28:11.920Z,17.94
2023-03-22T08:30:39.772Z,18.23
2023-03-22T08:33:07.618Z,18.23
2023-03-22T08:35:35.071Z,18.31
2023-03-22T08:38:02.614Z,18.63
2023-03-22T08:40:31.474Z,18.82
2023-03-22T08:42:59.898Z,18.58
2023-03-22T08:45:28.965Z,18.70
2023-03-22T08:47:57.844Z,18.83
2023-03-22T08:50:25.731Z,18.83
2023-03-22T08:52:53.887Z,19.03
2023-03-22T08:55:22.175Z,18.32
2023-03-22T08:57:51.794Z,18.70
2023-03-22T09:00:19.743Z,18.77
2023-03-22T09:02:48.194Z,18.92
2023-03-22T09:05:15.716Z,18.93
2023-03-22T09:07:43.157Z,19.13
2023-03-22T09:10:11.329Z,18.79
2023-03-22T09:12:39.413Z,19.05
2023-03-22T09:15:07.590Z,18.96
2023-03-22T09:17:36.440Z,18.90
2023-03-22T09:20:12.509Z,18.88
2023-03-22T09:22:41.310Z,18.95
2023-03-22T09:25:12.077Z,18.82
2023-03-22T09:27:42.100Z,18.83
2023-03-22T09:30:11.257Z,18.77
2023-03-22T09:32:39.562Z,19.24
2023-03-22T09:35:07.351Z,18.99
2023-03-22T09:37:35.690Z,18.75
2023-03-22T09:40:05.679Z,18.98
2023-03-22T09:42:39.631Z,19.00
2023-03-22T09:45:12.781Z,19.05
2023-03-22T09:47:44.986Z,19.24
2023-03-22T09:50:32.052Z,18.93
2023-03-22T09:53:00.229Z,19.12
2023-03-22T09:55:37.823Z,19.11
2023-03-22T09:58:11.447Z,19.17
2023-03-22T10:00:44.169Z,18.69
2023-03-22T10:03:36.616Z,18.65
2023-03-22T10:06:10.267Z,18.54
2023-03-22T10:09:05.333Z,18.13
2023-03-22T10:11:46.121Z,18.05
2023-03-22T10:14:36.210Z,18.21
2023-03-22T10:17:06.245Z,17.59
2023-03-22T10:19:35.658Z,17.23
2023-03-22T10:22:03.964Z,17.68
2023-03-22T10:24:35.846Z,17.92
2023-03-22T10:27:03.491Z,17.81
2023-03-22T10:29:41.482Z,17.64
2023-03-22T10:32:17.051Z,17.67
2023-03-22T10:34:44.544Z,17.95
2023-03-22T10:37:17.402Z,18.01
2023-03-22T10:39:46.460Z,18.10
2023-03-22T10:42:16.812Z,18.16
2023-03-22T10:44:51.985Z,18.06
2023-03-22T10:47:24.796Z,18.20
2023-03-22T10:49:54.772Z,18.20
2023-03-22T10:52:34.837Z,18.47
2023-03-22T10:55:04.505Z,18.46
2023-03-22T10:57:32.341Z,18.41
2023-03-22T10:59:59.756Z,18.74
2023-03-22T11:02:29.216Z,18.78
2023-03-22T11:04:59.044Z,18.60
2023-03-22T11:07:43.440Z,18.83
2023-03-22T11:10:10.915Z,18.94
2023-03-22T11:12:44.103Z,18.79
2023-03-22T11:15:24.008Z,18.93
2023-03-22T11:17:51.401Z,18.35
2023-03-22T11:20:19.640Z,18.91
2023-03-22T11:22:48.043Z,19.18
2023-03-22T11:25:22.376Z,19.55
2023-03-22T11:28:17.598Z,19.66
2023-03-22T11:30:58.467Z,20.27
2023-03-22T11:33:26.154Z,20.28
2023-03-22T11:35:55.314Z,20.25
2023-03-22T11:38:29.862Z,20.18
2023-03-22T11:41:00.718Z,20.19
2023-03-22T11:43:33.016Z,20.17
2023-03-22T11:46:00.722Z,20.40
2023-03-22T11:48:29.597Z,20.62
2023-03-22T11:51:13.514Z,20.74
2023-03-22T11:53:46.470Z,20.77
2023-03-22T11:56:18.956Z,20.94
2023-03-22T11:59:11.595Z,20.76
2023-03-22T12:01:41.483Z,21.05
2023-03-22T12:04:13.804Z,21.35
2023-03-22T12:06:41.360Z,21.54
2023-03-22T12:09:19.260Z,21.43
2023-03-22T12:11:47.862Z,21.41
2023-03-22T12:14:22.505Z,21.26
2023-03-22T12:17:13.057Z,21.14
2023-03-22T12:19:52.331Z,21.08
2023-03-22T12:22:22.927Z,21.30
2023-03-22T12:24:50.526Z,21.37
2023-03-22T12:27:19.099Z,21.35
2023-03-22T12:30:04.269Z,21.36
2023-03-22T12:32:42.096Z,20.99
2023-03-22T12:35:17.656Z,21.24
2023-03-22T12:37:51.798Z,21.50
2023-03-22T12:40:22.986Z,21.44
2023-03-22T12:42:56.671Z,21.96
2023-03-22T12:45:27.392Z,22.23
2023-03-22T12:48:06.279Z,22.17
2023-03-22T12:50:36.483Z,21.57
2023-03-22T12:53:04.502Z,21.67
2023-03-22T12:55:35.897Z,21.85
2023-03-22T12:58:06.140Z,21.58
2023-03-22T13:00:40.954Z,21.49
2023-03-22T13:03:21.008Z,21.55
2023-03-22T13:05:50.245Z,20.84
2023-03-22T13:08:21.568Z,20.51
2023-03-22T13:10:58.020Z,20.94
2023-03-22T13:13:25.490Z,21.20
2023-03-22T13:16:08.368Z,20.93
2023-03-22T13:18:35.694Z,20.91
2023-03-22T13:21:13.042Z,21.25
2023-03-22T13:24:05.308Z,21.23
2023-03-22T13:26:54.490Z,20.80
2023-03-22T13:29:26.628Z,20.78
2023-03-22T13:31:57.552Z,20.44
2023-03-22T13:34:48.402Z,20.94
2023-03-22T13:37:37.207Z,21.09
2023-03-22T13:40:14.977Z,21.32
2023-03-22T13:42:42.620Z,21.52
2023-03-22T13:45:31.467Z,21.41
2023-03-22T13:48:12.827Z,21.22
2023-03-22T13:50:40.602Z,20.92
2023-03-22T13:53:15.753Z,21.09
2023-03-22T13:55:46.154Z,20.66
2023-03-22T13:58:36.575Z,21.15
2023-03-22T14:01:14.951Z,21.12
2023-03-22T14:03:43.059Z,20.80
2023-03-22T14:06:20.968Z,21.26
2023-03-22T14:08:49.770Z,20.70
2023-03-22T14:11:21.212Z,20.44
2023-03-22T14:13:51.397Z,20.87
2023-03-22T14:16:34.112Z,20.93
2023-03-22T14:19:02.131Z,21.20
2023-03-22T14:21:39.247Z,21.39
